sensor_id;sensor_type;location;lat;lon;timestamp;pressure;altitude;pressure_sealevel;temperature;humidity
69455;BME280;56660;51.986;5.930;2022-09-09T00:01:35;100785.38;;;17.15;74.97
69455;BME280;56660;51.986;5.930;2022-09-09T00:04:09;100778.69;;;17.11;74.85
69455;BME280;56660;51.986;5.930;2022-09-09T00:06:43;100778.69;;;17.11;74.84
69455;BME280;56660;51.986;5.930;2022-09-09T00:09:14;100784.47;;;17.08;74.87
69455;BME280;56660;51.986;5.930;2022-09-09T00:11:42;100778.22;;;17.07;74.83
69455;BME280;56660;51.986;5.930;2022-09-09T00:14:13;100778.03;;;17.09;75.13
69455;BME280;56660;51.986;5.930;2022-09-09T00:16:49;100782.88;;;17.13;75.51
69455;BME280;56660;51.986;5.930;2022-09-09T00:19:20;100771.22;;;17.13;75.45
69455;BME280;56660;51.986;5.930;2022-09-09T00:21:52;100775.59;;;17.14;74.79
69455;BME280;56660;51.986;5.930;2022-09-09T00:24:26;100765.81;;;17.13;74.83
69455;BME280;56660;51.986;5.930;2022-09-09T00:26:56;100775.59;;;17.14;75.14
69455;BME280;56660;51.986;5.930;2022-09-09T00:29:28;100771.22;;;17.13;74.87
69455;BME280;56660;51.986;5.930;2022-09-09T00:32:09;100779.13;;;17.14;75.38
69455;BME280;56660;51.986;5.930;2022-09-09T00:34:38;100777.72;;;17.18;75.36
69455;BME280;56660;51.986;5.930;2022-09-09T00:37:07;100779.41;;;17.19;75.38
69455;BME280;56660;51.986;5.930;2022-09-09T00:39:36;100778.00;;;17.23;75.29
69455;BME280;56660;51.986;5.930;2022-09-09T00:42:11;100777.81;;;17.25;74.83
69455;BME280;56660;51.986;5.930;2022-09-09T00:44:44;100770.53;;;17.25;74.99
69455;BME280;56660;51.986;5.930;2022-09-09T00:47:20;100765.13;;;17.25;74.92
69455;BME280;56660;51.986;5.930;2022-09-09T00:50:00;100760.31;;;17.21;74.79
69455;BME280;56660;51.986;5.930;2022-09-09T00:52:36;100761.34;;;17.20;74.81
69455;BME280;56660;51.986;5.930;2022-09-09T00:55:11;100758.16;;;17.16;74.91
69455;BME280;56660;51.986;5.930;2022-09-09T00:57:42;100761.72;;;17.17;75.23
69455;BME280;56660;51.986;5.930;2022-09-09T01:00:17;100762.28;;;17.12;74.66
69455;BME280;56660;51.986;5.930;2022-09-09T01:02:50;100761.81;;;17.09;74.93
69455;BME280;56660;51.986;5.930;2022-09-09T01:05:23;100756.81;;;17.06;74.67
69455;BME280;56660;51.986;5.930;2022-09-09T01:07:58;100758.19;;;17.01;74.66
69455;BME280;56660;51.986;5.930;2022-09-09T01:10:28;100756.91;;;16.97;74.99
69455;BME280;56660;51.986;5.930;2022-09-09T01:13:02;100765.56;;;16.93;74.82
69455;BME280;56660;51.986;5.930;2022-09-09T01:15:36;100755.34;;;16.88;75.00
69455;BME280;56660;51.986;5.930;2022-09-09T01:18:07;100764.66;;;16.86;74.87
69455;BME280;56660;51.986;5.930;2022-09-09T01:20:37;100765.69;;;16.85;74.87
69455;BME280;56660;51.986;5.930;2022-09-09T01:23:16;100761.50;;;16.82;74.90
69455;BME280;56660;51.986;5.930;2022-09-09T01:26:14;100759.16;;;16.79;74.76
69455;BME280;56660;51.986;5.930;2022-09-09T01:28:45;100764.94;;;16.76;75.14
69455;BME280;56660;51.986;5.930;2022-09-09T01:31:14;100760.28;;;16.70;75.56
69455;BME280;56660;51.986;5.930;2022-09-09T01:33:43;100765.69;;;16.70;75.31
69455;BME280;56660;51.986;5.930;2022-09-09T01:36:09;100765.88;;;16.68;74.92
69455;BME280;56660;51.986;5.930;2022-09-09T01:38:40;100761.84;;;16.64;74.91
69455;BME280;56660;51.986;5.930;2022-09-09T01:41:05;100769.28;;;16.62;74.83
69455;BME280;56660;51.986;5.930;2022-09-09T01:43:32;100772.38;;;16.59;74.98
69455;BME280;56660;51.986;5.930;2022-09-09T01:45:58;100763.81;;;16.56;74.98
69455;BME280;56660;51.986;5.930;2022-09-09T01:48:25;100758.78;;;16.53;74.62
69455;BME280;56660;51.986;5.930;2022-09-09T01:50:52;100762.50;;;16.52;74.17
69455;BME280;56660;51.986;5.930;2022-09-09T01:53:18;100765.56;;;16.49;74.86
69455;BME280;56660;51.986;5.930;2022-09-09T01:55:46;100760.16;;;16.49;75.08
69455;BME280;56660;51.986;5.930;2022-09-09T01:58:26;100757.84;;;16.46;74.96
69455;BME280;56660;51.986;5.930;2022-09-09T02:01:00;100761.38;;;16.46;74.85
69455;BME280;56660;51.986;5.930;2022-09-09T02:03:31;100753.84;;;16.42;74.67
69455;BME280;56660;51.986;5.930;2022-09-09T02:06:00;100754.84;;;16.40;74.80
69455;BME280;56660;51.986;5.930;2022-09-09T02:08:36;100756.91;;;16.38;75.21
69455;BME280;56660;51.986;5.930;2022-09-09T02:11:05;100752.72;;;16.36;74.99
69455;BME280;56660;51.986;5.930;2022-09-09T02:13:36;100752.25;;;16.32;75.11
69455;BME280;56660;51.986;5.930;2022-09-09T02:16:06;100747.22;;;16.29;75.14
69455;BME280;56660;51.986;5.930;2022-09-09T02:18:35;100750.09;;;16.28;74.96
69455;BME280;56660;51.986;5.930;2022-09-09T02:21:05;100747.78;;;16.25;74.80
69455;BME280;56660;51.986;5.930;2022-09-09T02:23:32;100748.81;;;16.24;75.14
69455;BME280;56660;51.986;5.930;2022-09-09T02:26:00;100748.34;;;16.20;75.04
69455;BME280;56660;51.986;5.930;2022-09-09T02:28:28;100745.16;;;16.17;75.12
69455;BME280;56660;51.986;5.930;2022-09-09T02:30:57;100743.66;;;16.14;75.00
69455;BME280;56660;51.986;5.930;2022-09-09T02:33:27;100745.72;;;16.12;75.18
69455;BME280;56660;51.986;5.930;2022-09-09T02:35:57;100742.19;;;16.12;74.96
69455;BME280;56660;51.986;5.930;2022-09-09T02:38:26;100735.47;;;16.07;74.92
69455;BME280;56660;51.986;5.930;2022-09-09T02:40:55;100744.41;;;16.08;74.99
69455;BME280;56660;51.986;5.930;2022-09-09T02:43:21;100732.97;;;16.06;74.98
69455;BME280;56660;51.986;5.930;2022-09-09T02:45:47;100741.41;;;16.03;74.73
69455;BME280;56660;51.986;5.930;2022-09-09T02:48:25;100739.75;;;16.02;75.06
69455;BME280;56660;51.986;5.930;2022-09-09T02:50:59;100733.88;;;15.98;74.98
69455;BME280;56660;51.986;5.930;2022-09-09T02:53:35;100735.75;;;15.98;74.96
69455;BME280;56660;51.986;5.930;2022-09-09T02:56:08;100725.97;;;15.97;75.04
69455;BME280;56660;51.986;5.930;2022-09-09T02:58:40;100732.19;;;15.97;75.30
69455;BME280;56660;51.986;5.930;2022-09-09T03:01:06;100739.47;;;15.97;74.95
69455;BME280;56660;51.986;5.930;2022-09-09T03:03:33;100737.31;;;15.92;75.17
69455;BME280;56660;51.986;5.930;2022-09-09T03:05:59;100738.31;;;15.91;75.04
69455;BME280;56660;51.986;5.930;2022-09-09T03:08:25;100743.06;;;15.89;74.96
69455;BME280;56660;51.986;5.930;2022-09-09T03:10:50;100735.34;;;15.86;75.02
69455;BME280;56660;51.986;5.930;2022-09-09T03:13:16;100740.06;;;15.84;75.14
69455;BME280;56660;51.986;5.930;2022-09-09T03:15:41;100748.16;;;15.84;75.26
69455;BME280;56660;51.986;5.930;2022-09-09T03:18:07;100743.97;;;15.82;74.90
69455;BME280;56660;51.986;5.930;2022-09-09T03:20:33;100747.69;;;15.81;75.26
69455;BME280;56660;51.986;5.930;2022-09-09T03:22:59;100753.09;;;15.81;75.26
69455;BME280;56660;51.986;5.930;2022-09-09T03:25:25;100751.41;;;15.80;75.34
69455;BME280;56660;51.986;5.930;2022-09-09T03:27:51;100752.59;;;15.77;75.31
69455;BME280;56660;51.986;5.930;2022-09-09T03:30:17;100750.44;;;15.72;75.04
69455;BME280;56660;51.986;5.930;2022-09-09T03:32:43;100756.03;;;15.71;75.54
69455;BME280;56660;51.986;5.930;2022-09-09T03:35:08;100756.88;;;15.71;75.41
69455;BME280;56660;51.986;5.930;2022-09-09T03:37:35;100755.00;;;15.72;75.47
69455;BME280;56660;51.986;5.930;2022-09-09T03:40:01;100747.09;;;15.70;75.67
69455;BME280;56660;51.986;5.930;2022-09-09T03:42:27;100750.81;;;15.69;75.44
69455;BME280;56660;51.986;5.930;2022-09-09T03:44:52;100748.31;;;15.68;75.74
69455;BME280;56660;51.986;5.930;2022-09-09T03:47:18;100753.50;;;15.69;75.56
69455;BME280;56660;51.986;5.930;2022-09-09T03:49:44;100753.31;;;15.71;75.45
69455;BME280;56660;51.986;5.930;2022-09-09T03:52:10;100748.13;;;15.69;75.83
69455;BME280;56660;51.986;5.930;2022-09-09T03:54:37;100749.13;;;15.68;75.86
69455;BME280;56660;51.986;5.930;2022-09-09T03:57:03;100733.63;;;15.70;75.62
69455;BME280;56660;51.986;5.930;2022-09-09T03:59:29;100738.47;;;15.75;76.02
69455;BME280;56660;51.986;5.930;2022-09-09T04:01:54;100746.38;;;15.77;75.68
69455;BME280;56660;51.986;5.930;2022-09-09T04:04:20;100746.84;;;15.80;75.95
69455;BME280;56660;51.986;5.930;2022-09-09T04:06:45;100749.38;;;15.82;76.02
69455;BME280;56660;51.986;5.930;2022-09-09T04:09:11;100749.84;;;15.85;75.67
69455;BME280;56660;51.986;5.930;2022-09-09T04:11:38;100752.34;;;15.87;76.18
69455;BME280;56660;51.986;5.930;2022-09-09T04:14:03;100749.94;;;15.92;75.95
69455;BME280;56660;51.986;5.930;2022-09-09T04:16:28;100748.75;;;15.94;76.00
69455;BME280;56660;51.986;5.930;2022-09-09T04:18:54;100742.16;;;15.97;75.91
69455;BME280;56660;51.986;5.930;2022-09-09T04:21:19;100731.00;;;16.00;76.06
69455;BME280;56660;51.986;5.930;2022-09-09T04:23:45;100733.50;;;16.01;75.92
69455;BME280;56660;51.986;5.930;2022-09-09T04:26:13;100731.47;;;16.03;75.75
69455;BME280;56660;51.986;5.930;2022-09-09T04:28:40;100717.16;;;16.03;75.88
69455;BME280;56660;51.986;5.930;2022-09-09T04:31:06;100724.22;;;16.04;75.95
69455;BME280;56660;51.986;5.930;2022-09-09T04:33:33;100713.63;;;16.02;76.00
69455;BME280;56660;51.986;5.930;2022-09-09T04:35:58;100720.31;;;16.06;75.79
69455;BME280;56660;51.986;5.930;2022-09-09T04:38:24;100723.47;;;16.10;76.01
69455;BME280;56660;51.986;5.930;2022-09-09T04:40:50;100723.94;;;16.14;76.21
69455;BME280;56660;51.986;5.930;2022-09-09T04:43:16;100721.91;;;16.16;76.01
69455;BME280;56660;51.986;5.930;2022-09-09T04:45:43;100721.06;;;16.15;75.89
69455;BME280;56660;51.986;5.930;2022-09-09T04:48:12;100716.31;;;16.17;76.24
69455;BME280;56660;51.986;5.930;2022-09-09T04:50:38;100711.59;;;16.19;76.18
69455;BME280;56660;51.986;5.930;2022-09-09T04:53:03;100722.38;;;16.19;76.39
69455;BME280;56660;51.986;5.930;2022-09-09T04:55:29;100720.34;;;16.21;75.96
69455;BME280;56660;51.986;5.930;2022-09-09T04:57:55;100724.06;;;16.20;76.19
69455;BME280;56660;51.986;5.930;2022-09-09T05:00:21;100728.44;;;16.21;76.15
69455;BME280;56660;51.986;5.930;2022-09-09T05:02:48;100715.97;;;16.20;76.05
69455;BME280;56660;51.986;5.930;2022-09-09T05:05:13;100725.53;;;16.23;76.18
69455;BME280;56660;51.986;5.930;2022-09-09T05:07:38;100716.25;;;16.25;76.27
69455;BME280;56660;51.986;5.930;2022-09-09T05:10:04;100717.72;;;16.28;76.60
69455;BME280;56660;51.986;5.930;2022-09-09T05:12:30;100714.00;;;16.29;76.30
69455;BME280;56660;51.986;5.930;2022-09-09T05:14:56;100709.91;;;16.33;76.20
69455;BME280;56660;51.986;5.930;2022-09-09T05:17:21;100707.88;;;16.35;76.23
69455;BME280;56660;51.986;5.930;2022-09-09T05:19:48;100705.81;;;16.37;76.28
69455;BME280;56660;51.986;5.930;2022-09-09T05:22:17;100706.66;;;16.37;76.35
69455;BME280;56660;51.986;5.930;2022-09-09T05:24:43;100701.25;;;16.37;76.46
69455;BME280;56660;51.986;5.930;2022-09-09T05:27:09;100697.16;;;16.42;76.43
69455;BME280;56660;51.986;5.930;2022-09-09T05:29:34;100708.81;;;16.42;76.32
69455;BME280;56660;51.986;5.930;2022-09-09T05:31:59;100705.72;;;16.45;76.69
69455;BME280;56660;51.986;5.930;2022-09-09T05:34:25;100700.97;;;16.47;76.38
69455;BME280;56660;51.986;5.930;2022-09-09T05:36:52;100713.25;;;16.50;76.51
69455;BME280;56660;51.986;5.930;2022-09-09T05:39:17;100708.53;;;16.52;76.79
69455;BME280;56660;51.986;5.930;2022-09-09T05:41:43;100710.00;;;16.54;76.72
69455;BME280;56660;51.986;5.930;2022-09-09T05:44:08;100698.38;;;16.54;76.80
69455;BME280;56660;51.986;5.930;2022-09-09T05:46:34;100708.16;;;16.55;76.91
69455;BME280;56660;51.986;5.930;2022-09-09T05:49:01;100704.22;;;16.57;76.71
69455;BME280;56660;51.986;5.930;2022-09-09T05:51:27;100709.44;;;16.59;77.01
69455;BME280;56660;51.986;5.930;2022-09-09T05:53:55;100713.16;;;16.58;77.10
69455;BME280;56660;51.986;5.930;2022-09-09T05:56:22;100710.47;;;16.58;76.63
69455;BME280;56660;51.986;5.930;2022-09-09T05:58:49;100703.22;;;16.58;76.94
69455;BME280;56660;51.986;5.930;2022-09-09T06:01:15;100709.06;;;16.62;76.93
69455;BME280;56660;51.986;5.930;2022-09-09T06:03:42;100706.66;;;16.67;76.79
69455;BME280;56660;51.986;5.930;2022-09-09T06:06:10;100701.34;;;16.74;76.74
69455;BME280;56660;51.986;5.930;2022-09-09T08:15:10;100728.25;;;19.07;72.74
69455;BME280;56660;51.986;5.930;2022-09-09T08:17:35;100728.03;;;19.02;72.56
69455;BME280;56660;51.986;5.930;2022-09-09T08:20:01;100728.84;;;18.95;72.76
69455;BME280;56660;51.986;5.930;2022-09-09T08:22:28;100734.66;;;18.92;72.08
69455;BME280;56660;51.986;5.930;2022-09-09T08:30:04;100741.75;;;18.93;71.92
69455;BME280;56660;51.986;5.930;2022-09-09T08:32:32;100735.31;;;18.94;71.82
69455;BME280;56660;51.986;5.930;2022-09-09T08:35:19;100735.94;;;18.97;71.78
69455;BME280;56660;51.986;5.930;2022-09-09T08:40:24;100749.88;;;18.93;71.95
69455;BME280;56660;51.986;5.930;2022-09-09T08:42:54;100740.50;;;18.89;71.93
69455;BME280;56660;51.986;5.930;2022-09-09T08:55:41;100748.22;;;18.92;71.95
69455;BME280;56660;51.986;5.930;2022-09-09T08:58:17;100745.72;;;18.98;71.79
69455;BME280;56660;51.986;5.930;2022-09-09T09:00:52;100740.31;;;18.98;71.98
69455;BME280;56660;51.986;5.930;2022-09-09T09:03:32;100743.03;;;18.98;71.52
69455;BME280;56660;51.986;5.930;2022-09-09T09:16:45;100761.44;;;19.15;70.71
69455;BME280;56660;51.986;5.930;2022-09-09T09:19:17;100760.41;;;19.23;70.58
69455;BME280;56660;51.986;5.930;2022-09-09T09:21:44;100759.59;;;19.29;70.22
69455;BME280;56660;51.986;5.930;2022-09-09T09:24:19;100763.38;;;19.35;69.34
69455;BME280;56660;51.986;5.930;2022-09-09T09:26:49;100769.63;;;19.35;69.68
69455;BME280;56660;51.986;5.930;2022-09-09T09:29:24;100756.28;;;19.34;69.90
69455;BME280;56660;51.986;5.930;2022-09-09T09:31:58;100757.09;;;19.34;69.70
69455;BME280;56660;51.986;5.930;2022-09-09T09:34:28;100767.13;;;19.34;69.56
69455;BME280;56660;51.986;5.930;2022-09-09T09:36:54;100764.19;;;19.28;69.51
69455;BME280;56660;51.986;5.930;2022-09-09T09:39:24;100762.91;;;19.24;69.27
69455;BME280;56660;51.986;5.930;2022-09-09T09:42:11;100759.38;;;19.24;69.55
69455;BME280;56660;51.986;5.930;2022-09-09T09:44:38;100762.53;;;19.34;69.30
69455;BME280;56660;51.986;5.930;2022-09-09T09:49:52;100747.75;;;19.50;68.87
69455;BME280;56660;51.986;5.930;2022-09-09T09:52:26;100760.31;;;19.57;69.19
69455;BME280;56660;51.986;5.930;2022-09-09T09:54:55;100750.31;;;19.71;69.01
69455;BME280;56660;51.986;5.930;2022-09-09T09:57:25;100742.19;;;19.84;68.98
69455;BME280;56660;51.986;5.930;2022-09-09T10:00:03;100755.75;;;19.98;68.79
69455;BME280;56660;51.986;5.930;2022-09-09T10:02:39;100755.56;;;20.06;68.22
69455;BME280;56660;51.986;5.930;2022-09-09T10:05:18;100754.72;;;20.05;67.33
69455;BME280;56660;51.986;5.930;2022-09-09T10:07:45;100749.09;;;20.00;67.75
69455;BME280;56660;51.986;5.930;2022-09-09T10:10:26;100750.75;;;19.95;67.20
69455;BME280;56660;51.986;5.930;2022-09-09T10:13:04;100753.69;;;19.86;66.96
69455;BME280;56660;51.986;5.930;2022-09-09T10:15:42;100749.91;;;19.81;67.66
69455;BME280;56660;51.986;5.930;2022-09-09T10:18:24;100754.50;;;19.74;67.93
69455;BME280;56660;51.986;5.930;2022-09-09T10:21:13;100761.78;;;19.67;67.62
69455;BME280;56660;51.986;5.930;2022-09-09T10:24:09;100757.63;;;19.64;67.99
69455;BME280;56660;51.986;5.930;2022-09-09T10:26:53;100742.81;;;19.60;67.47
69455;BME280;56660;51.986;5.930;2022-09-09T10:29:31;100756.56;;;19.58;67.81
69455;BME280;56660;51.986;5.930;2022-09-09T10:32:17;100752.41;;;19.63;68.16
69455;BME280;56660;51.986;5.930;2022-09-09T10:35:32;100754.50;;;19.67;67.82
69455;BME280;56660;51.986;5.930;2022-09-09T10:38:11;100753.47;;;19.75;67.60
69455;BME280;56660;51.986;5.930;2022-09-09T10:40:48;100755.13;;;19.76;67.32
69455;BME280;56660;51.986;5.930;2022-09-09T10:43:31;100757.22;;;19.74;67.44
69455;BME280;56660;51.986;5.930;2022-09-09T10:46:26;100749.91;;;19.74;67.33
69455;BME280;56660;51.986;5.930;2022-09-09T10:49:05;100757.22;;;19.74;67.51
69455;BME280;56660;51.986;5.930;2022-09-09T10:51:55;100753.88;;;19.72;67.49
69455;BME280;56660;51.986;5.930;2022-09-09T10:54:31;100750.13;;;19.66;68.10
69455;BME280;56660;51.986;5.930;2022-09-09T10:57:11;100747.19;;;19.68;68.07
69455;BME280;56660;51.986;5.930;2022-09-09T10:59:48;100751.56;;;19.69;68.12
69455;BME280;56660;51.986;5.930;2022-09-09T11:02:30;100744.28;;;19.76;68.86
69455;BME280;56660;51.986;5.930;2022-09-09T11:05:02;100748.25;;;19.80;68.29
69455;BME280;56660;51.986;5.930;2022-09-09T11:07:38;100743.25;;;19.83;68.71
69455;BME280;56660;51.986;5.930;2022-09-09T11:10:21;100740.94;;;19.87;68.07
69455;BME280;56660;51.986;5.930;2022-09-09T11:12:57;100752.00;;;19.92;67.83
69455;BME280;56660;51.986;5.930;2022-09-09T11:15:30;100748.03;;;19.95;67.42
69455;BME280;56660;51.986;5.930;2022-09-09T11:18:05;100749.72;;;19.96;66.75
69455;BME280;56660;51.986;5.930;2022-09-09T11:20:41;100749.91;;;19.94;67.18
69455;BME280;56660;51.986;5.930;2022-09-09T11:23:17;100766.63;;;19.91;67.87
69455;BME280;56660;51.986;5.930;2022-09-09T11:25:48;100757.22;;;19.94;68.59
69455;BME280;56660;51.986;5.930;2022-09-09T11:28:25;100762.22;;;20.03;68.94
69455;BME280;56660;51.986;5.930;2022-09-09T11:31:14;100762.22;;;20.10;69.29
69455;BME280;56660;51.986;5.930;2022-09-09T11:34:03;100759.72;;;20.15;68.96
69455;BME280;56660;51.986;5.930;2022-09-09T11:36:55;100759.50;;;20.16;69.03
69455;BME280;56660;51.986;5.930;2022-09-09T11:39:47;100774.75;;;20.17;69.32
69455;BME280;56660;51.986;5.930;2022-09-09T11:42:59;100763.06;;;20.23;68.98
69455;BME280;56660;51.986;5.930;2022-09-09T11:45:41;100767.66;;;20.30;68.92
69455;BME280;56660;51.986;5.930;2022-09-09T11:48:20;100764.50;;;20.33;68.74
69455;BME280;56660;51.986;5.930;2022-09-09T11:50:58;100769.75;;;20.41;68.80
69455;BME280;56660;51.986;5.930;2022-09-09T11:53:28;100762.22;;;20.43;68.10
69455;BME280;56660;51.986;5.930;2022-09-09T11:56:03;100759.31;;;20.44;68.57
69455;BME280;56660;51.986;5.930;2022-09-09T11:58:33;100762.63;;;20.46;68.54
69455;BME280;56660;51.986;5.930;2022-09-09T12:04:01;100760.13;;;20.45;69.01
69455;BME280;56660;51.986;5.930;2022-09-09T12:12:35;100767.16;;;20.72;69.87
69455;BME280;56660;51.986;5.930;2022-09-09T12:17:59;100757.72;;;20.95;69.16
69455;BME280;56660;51.986;5.930;2022-09-09T12:23:02;100753.13;;;20.95;68.66
69455;BME280;56660;51.986;5.930;2022-09-09T12:25:52;100747.91;;;20.87;68.29
69455;BME280;56660;51.986;5.930;2022-09-09T12:28:27;100752.31;;;20.75;68.41
69455;BME280;56660;51.986;5.930;2022-09-09T12:31:16;100751.94;;;20.65;68.54
69455;BME280;56660;51.986;5.930;2022-09-09T12:33:47;100755.50;;;20.65;69.02
69455;BME280;56660;51.986;5.930;2022-09-09T12:36:18;100748.56;;;20.76;69.01
69455;BME280;56660;51.986;5.930;2022-09-09T12:38:59;100749.38;;;20.90;68.56
69455;BME280;56660;51.986;5.930;2022-09-09T12:41:40;100739.47;;;21.08;68.36
69455;BME280;56660;51.986;5.930;2022-09-09T12:44:13;100741.09;;;21.16;67.23
69455;BME280;56660;51.986;5.930;2022-09-09T12:46:41;100744.88;;;21.15;67.13
69455;BME280;56660;51.986;5.930;2022-09-09T12:49:20;100740.66;;;21.19;67.97
69455;BME280;56660;51.986;5.930;2022-09-09T12:51:56;100719.75;;;21.26;66.97
69455;BME280;56660;51.986;5.930;2022-09-09T12:54:22;100728.94;;;21.25;66.74
69455;BME280;56660;51.986;5.930;2022-09-09T12:56:51;100724.13;;;21.21;66.88
69455;BME280;56660;51.986;5.930;2022-09-09T12:59:26;100727.06;;;21.19;66.74
69455;BME280;56660;51.986;5.930;2022-09-09T13:02:16;100725.44;;;21.11;66.54
69455;BME280;56660;51.986;5.930;2022-09-09T13:04:47;100724.88;;;20.96;66.74
69455;BME280;56660;51.986;5.930;2022-09-09T13:07:17;100723.88;;;20.91;67.23
69455;BME280;56660;51.986;5.930;2022-09-09T13:10:19;100725.34;;;20.86;67.07
69455;BME280;56660;51.986;5.930;2022-09-09T13:12:52;100727.44;;;20.78;67.45
69455;BME280;56660;51.986;5.930;2022-09-09T13:15:28;100726.22;;;20.67;68.47
69455;BME280;56660;51.986;5.930;2022-09-09T13:18:13;100723.72;;;20.66;68.71
69455;BME280;56660;51.986;5.930;2022-09-09T13:20:39;100725.38;;;20.73;69.16
69455;BME280;56660;51.986;5.930;2022-09-09T13:23:12;100717.63;;;20.83;69.44
69455;BME280;56660;51.986;5.930;2022-09-09T13:25:51;100718.19;;;20.99;69.72
69455;BME280;56660;51.986;5.930;2022-09-09T13:28:24;100714.47;;;21.31;69.76
69455;BME280;56660;51.986;5.930;2022-09-09T13:30:59;100711.75;;;21.63;68.50
69455;BME280;56660;51.986;5.930;2022-09-09T13:33:33;100708.38;;;21.67;67.45
69455;BME280;56660;51.986;5.930;2022-09-09T13:36:04;100705.25;;;21.64;67.38
69455;BME280;56660;51.986;5.930;2022-09-09T13:38:38;100698.59;;;21.60;67.51
69455;BME280;56660;51.986;5.930;2022-09-09T13:41:19;100702.81;;;21.56;67.41
69455;BME280;56660;51.986;5.930;2022-09-09T13:43:48;100708.41;;;21.61;67.66
69455;BME280;56660;51.986;5.930;2022-09-09T13:46:29;100699.38;;;21.67;67.21
69455;BME280;56660;51.986;5.930;2022-09-09T13:49:00;100702.09;;;21.67;67.01
69455;BME280;56660;51.986;5.930;2022-09-09T13:52:01;100695.38;;;21.69;66.40
69455;BME280;56660;51.986;5.930;2022-09-09T13:54:38;100702.81;;;21.56;65.84
69455;BME280;56660;51.986;5.930;2022-09-09T13:57:14;100699.34;;;21.42;66.55
69455;BME280;56660;51.986;5.930;2022-09-09T13:59:45;100693.38;;;21.27;66.52
69455;BME280;56660;51.986;5.930;2022-09-09T14:05:01;100704.84;;;20.91;67.07
69455;BME280;56660;51.986;5.930;2022-09-09T14:07:45;100692.72;;;20.80;67.14
69455;BME280;56660;51.986;5.930;2022-09-09T14:10:32;100698.84;;;20.69;67.33
69455;BME280;56660;51.986;5.930;2022-09-09T14:12:57;100711.41;;;20.63;68.05
69455;BME280;56660;51.986;5.930;2022-09-09T14:15:23;100701.56;;;20.69;68.05
69455;BME280;56660;51.986;5.930;2022-09-09T14:17:51;100701.94;;;20.79;67.58
69455;BME280;56660;51.986;5.930;2022-09-09T14:20:18;100704.44;;;20.87;67.56
69455;BME280;56660;51.986;5.930;2022-09-09T14:22:43;100715.09;;;20.89;67.12
69455;BME280;56660;51.986;5.930;2022-09-09T14:25:16;100718.88;;;20.88;66.38
69455;BME280;56660;51.986;5.930;2022-09-09T14:27:44;100710.09;;;20.79;66.32
69455;BME280;56660;51.986;5.930;2022-09-09T14:30:12;100714.72;;;20.72;66.68
69455;BME280;56660;51.986;5.930;2022-09-09T14:32:41;100714.34;;;20.62;67.28
69455;BME280;56660;51.986;5.930;2022-09-09T14:37:53;100719.16;;;20.53;67.68
69455;BME280;56660;51.986;5.930;2022-09-09T14:40:19;100709.56;;;20.50;67.73
69455;BME280;56660;51.986;5.930;2022-09-09T14:42:52;100702.47;;;20.49;67.44
69455;BME280;56660;51.986;5.930;2022-09-09T14:45:40;100703.09;;;20.51;67.30
69455;BME280;56660;51.986;5.930;2022-09-09T14:48:28;100702.44;;;20.56;67.50
69455;BME280;56660;51.986;5.930;2022-09-09T14:51:04;100692.59;;;20.62;67.35
69455;BME280;56660;51.986;5.930;2022-09-09T14:53:37;100696.13;;;20.69;67.54
69455;BME280;56660;51.986;5.930;2022-09-09T14:56:06;100695.47;;;20.73;67.33
69455;BME280;56660;51.986;5.930;2022-09-09T14:58:33;100696.50;;;20.79;67.72
69455;BME280;56660;51.986;5.930;2022-09-09T15:01:04;100694.41;;;20.88;67.04
69455;BME280;56660;51.986;5.930;2022-09-09T15:03:30;100687.22;;;21.00;66.98
69455;BME280;56660;51.986;5.930;2022-09-09T15:06:04;100688.44;;;21.10;67.13
69455;BME280;56660;51.986;5.930;2022-09-09T15:08:45;100687.56;;;21.16;66.83
69455;BME280;56660;51.986;5.930;2022-09-09T15:11:12;100683.38;;;21.14;65.91
69455;BME280;56660;51.986;5.930;2022-09-09T15:13:39;100674.63;;;21.12;66.36
69455;BME280;56660;51.986;5.930;2022-09-09T15:16:11;100678.38;;;21.11;66.45
69455;BME280;56660;51.986;5.930;2022-09-09T15:18:39;100680.72;;;21.07;66.29
69455;BME280;56660;51.986;5.930;2022-09-09T15:21:22;100681.38;;;21.03;66.33
69455;BME280;56660;51.986;5.930;2022-09-09T15:24:03;100673.47;;;20.95;66.56
69455;BME280;56660;51.986;5.930;2022-09-09T15:26:32;100679.53;;;20.90;66.69
69455;BME280;56660;51.986;5.930;2022-09-09T15:28:58;100688.13;;;20.87;67.36
69455;BME280;56660;51.986;5.930;2022-09-09T15:31:25;100689.84;;;20.81;68.31
69455;BME280;56660;51.986;5.930;2022-09-09T15:33:55;100689.22;;;20.73;68.50
69455;BME280;56660;51.986;5.930;2022-09-09T15:39:37;100680.31;;;20.52;69.15
69455;BME280;56660;51.986;5.930;2022-09-09T15:42:04;100679.91;;;20.49;69.71
69455;BME280;56660;51.986;5.930;2022-09-09T15:47:15;100678.66;;;20.38;69.47
69455;BME280;56660;51.986;5.930;2022-09-09T15:49:41;100678.25;;;20.35;69.46
69455;BME280;56660;51.986;5.930;2022-09-09T15:52:08;100670.50;;;20.32;69.39
69455;BME280;56660;51.986;5.930;2022-09-09T15:54:35;100681.59;;;20.30;69.25
69455;BME280;56660;51.986;5.930;2022-09-09T15:57:11;100677.41;;;20.28;69.23
69455;BME280;56660;51.986;5.930;2022-09-09T15:59:41;100668.25;;;20.22;68.59
69455;BME280;56660;51.986;5.930;2022-09-09T16:02:14;100677.44;;;20.21;68.77
69455;BME280;56660;51.986;5.930;2022-09-09T16:05:02;100668.25;;;20.15;69.23
69455;BME280;56660;51.986;5.930;2022-09-09T16:07:31;100734.25;;;20.09;68.91
69455;BME280;56660;51.986;5.930;2022-09-09T16:10:04;100735.50;;;20.00;70.98
69455;BME280;56660;51.986;5.930;2022-09-09T16:15:13;100735.53;;;19.00;73.54
69455;BME280;56660;51.986;5.930;2022-09-09T16:17:41;100735.00;;;18.76;74.97
69455;BME280;56660;51.986;5.930;2022-09-09T16:20:27;100720.94;;;18.59;74.80
69455;BME280;56660;51.986;5.930;2022-09-09T16:22:52;100720.47;;;18.49;75.83